Samus Swan — 9HA2333 — position and weather

sailwx.info

Track history (hours):
 
Tides and Currents Weather Stations Pressure Air Temp Water Temp Dewpoint Dewpoint Depression Visibility Wind Speed Wind Dir Waves Ship Positions

Samus Swan

Last reported at 2014-Nov-20 13:33 UTC. Time now 2014-Nov-24 12:34 UTC.
Position N 50°31' W 000°02'.

Length 106 m; draft 5.7 m.

Type: Ship (hazmat cat B). MMSI: 248363000.

Date/timePositionNaut miles runAvg speedWind from/ knotsBaromVisibWave heightAir tempDewpointWater temp
2014-Nov-20 13:33N 50°31' W 000°02'1413.6
2014-Nov-20 12:33N 50°34' E 000°19'1313.0
2014-Nov-20 11:33N 50°37' E 000°39'1212.4
2014-Nov-20 10:33N 50°44' E 000°55'1312.5
2014-Nov-20 09:31N 50°51' E 001°12'1111.1
2014-Nov-20 08:33N 50°59' E 001°24'1312.7
2014-Nov-20 07:33N 51°08' E 001°38'1413.8
2014-Nov-20 06:34N 51°20' E 001°50'1414.0
2014-Nov-20 05:34N 51°32' E 002°01'18711.0
2014-Nov-19 12:33N 54°04' E 004°59'1313.3
2014-Nov-19 11:33N 54°06' E 005°21'1313.2
2014-Nov-19 10:32N 54°08' E 005°44'4912.4
2014-Nov-19 06:33N 54°12' E 007°08'1111.4
2014-Nov-19 05:33N 54°12' E 007°28'1111.1
2014-Nov-19 04:33N 54°08' E 007°45'8 8.2
2014-Nov-19 03:33N 54°05' E 007°58'1 1.4
2014-Nov-19 02:33N 54°06' E 007°59'6 6.2
2014-Nov-19 01:33N 54°01' E 008°07'1312.8
2014-Nov-19 00:33N 53°59' E 008°28'1414.3
2014-Nov-18 23:34N 53°51' E 008°48'1312.7
2014-Nov-18 22:33N 53°53' E 009°09'2110.4
2014-Nov-18 20:34N 53°38' E 009°33'1111.2
2014-Nov-18 19:34N 53°33' E 009°50'6 5.4
2014-Nov-18 18:32N 53°32' E 009°59'0 0.0
2014-Nov-18 17:32N 53°32' E 009°59'0 0.0
2014-Nov-18 16:32N 53°32' E 009°59'0 0.0
2014-Nov-18 15:29N 53°32' E 009°59'0 0.0
2014-Nov-18 14:32N 53°32' E 009°59'2 2.1
2014-Nov-18 13:34N 53°32' E 009°56'2 1.5
2014-Nov-18 12:29N 53°32' E 009°53'0 0.0
2014-Nov-17 21:23N 53°32' E 009°53'4 4.8
2014-Nov-17 20:33N 53°34' E 009°46'1313.4
2014-Nov-17 19:33N 53°42' E 009°29'1515.0
2014-Nov-17 18:33N 53°53' E 009°11'1313.2
2014-Nov-17 17:34N 53°50' E 008°49'1414.2
2014-Nov-17 16:33N 53°58' E 008°30'1313.3
2014-Nov-17 15:33N 53°60' E 008°07'9 8.8
2014-Nov-17 14:34N 54°03' E 007°53'1111.3
2014-Nov-17 13:34N 54°08' E 007°36'1211.9
2014-Nov-17 12:33N 54°09' E 007°16'4011.6
2014-Nov-17 09:08N 54°08' E 006°08'711.5
2014-Nov-17 08:33N 54°07' E 005°57'1211.5
2014-Nov-17 07:33N 54°05' E 005°37'1211.6
2014-Nov-17 06:33N 54°03' E 005°18'1211.8
2014-Nov-17 05:34N 54°02' E 004°58'100 9.6
2014-Nov-16 19:09N 52°31' E 003°47'812.0
2014-Nov-16 18:32N 52°31' E 003°59'1212.2
2014-Nov-16 17:34N 52°30' E 004°19'1010.4
2014-Nov-16 16:34N 52°28' E 004°35'3 2.5
2014-Nov-16 15:33N 52°28' E 004°40'4 3.8
2014-Nov-16 14:26N 52°25' E 004°45'0 0.0
2014-Nov-16 13:32N 52°25' E 004°45'0 0.0
2014-Nov-16 12:32N 52°25' E 004°45'0 0.0
2014-Nov-16 11:32N 52°25' E 004°45'0 0.0
2014-Nov-16 10:32N 52°25' E 004°45'0 0.0
2014-Nov-16 09:32N 52°25' E 004°45'0 0.0
2014-Nov-16 08:32N 52°25' E 004°45'0 0.0
2014-Nov-16 07:32N 52°25' E 004°45'0 0.0
2014-Nov-16 06:32N 52°25' E 004°45'0 0.0
2014-Nov-16 05:32N 52°25' E 004°45'0 0.0
2014-Nov-16 04:23N 52°25' E 004°45'0 0.0
2014-Nov-16 03:32N 52°25' E 004°45'0 0.0
2014-Nov-16 02:32N 52°25' E 004°45'0 0.0
2014-Nov-16 01:32N 52°25' E 004°45'0 0.0
2014-Nov-16 00:32N 52°25' E 004°45'0 0.0
2014-Nov-15 23:32N 52°25' E 004°45'0 0.0
2014-Nov-15 22:32N 52°25' E 004°45'0 0.0
2014-Nov-15 21:32N 52°25' E 004°45'0 0.0
2014-Nov-15 20:32N 52°25' E 004°45'0 0.0
2014-Nov-15 19:32N 52°25' E 004°45'0 0.0
2014-Nov-15 18:32N 52°25' E 004°45'0 0.0
2014-Nov-15 17:32N 52°25' E 004°45'0 0.0
2014-Nov-15 16:32N 52°25' E 004°45'0 0.0
2014-Nov-15 15:32N 52°25' E 004°45'0 0.0
2014-Nov-15 14:32N 52°25' E 004°45'0 0.0
2014-Nov-15 13:32N 52°25' E 004°45'0 0.0
2014-Nov-15 12:33N 52°25' E 004°45'4 4.5
2014-Nov-15 11:33N 52°28' E 004°39'4 3.9
2014-Nov-15 10:34N 52°28' E 004°33'1111.2
2014-Nov-15 09:34N 52°29' E 004°14'7 6.6
2014-Nov-15 08:32N 52°27' E 004°04'0 0.0
2014-Nov-15 07:32N 52°27' E 004°04'0 0.0
2014-Nov-15 06:32N 52°27' E 004°04'0 0.0
2014-Nov-15 05:32N 52°27' E 004°04'0 0.1
2014-Nov-15 04:32N 52°27' E 004°03'0 0.0
2014-Nov-15 03:32N 52°27' E 004°04'0 0.0
2014-Nov-15 02:32N 52°27' E 004°04'0 0.0
2014-Nov-15 01:32N 52°27' E 004°04'0 0.1
2014-Nov-15 00:32N 52°27' E 004°04'0 0.0
2014-Nov-14 23:32N 52°27' E 004°04'0 0.0
2014-Nov-14 22:32N 52°27' E 004°04'0 0.0
2014-Nov-14 21:32N 52°27' E 004°04'0 0.0
2014-Nov-14 20:32N 52°27' E 004°04'0 0.0
2014-Nov-14 19:32N 52°27' E 004°04'0 0.0
2014-Nov-14 18:28N 52°27' E 004°04'0 0.0
2014-Nov-14 17:32N 52°27' E 004°04'0 0.0
2014-Nov-14 16:29N 52°27' E 004°04'0 0.0
2014-Nov-14 15:31N 52°27' E 004°04'0 0.1
2014-Nov-14 14:32N 52°27' E 004°03'0 0.0
2014-Nov-14 12:31N 52°27' E 004°03'0 0.0
2014-Nov-14 11:31N 52°27' E 004°03'0 0.0
2014-Nov-14 10:31N 52°27' E 004°03'0 0.0
2014-Nov-14 09:31N 52°27' E 004°03'0 0.0
2014-Nov-14 08:31N 52°27' E 004°03'0 0.0
2014-Nov-14 07:31N 52°27' E 004°04'0 0.0
2014-Nov-14 06:31N 52°27' E 004°04'0 0.0
2014-Nov-14 05:31N 52°27' E 004°03'2 1.9
2014-Nov-14 04:33N 52°28' E 004°00'1111.2
2014-Nov-14 03:33N 52°25' E 003°42'6310.4
2014-Nov-13 21:33N 51°41' E 002°30'1111.4
2014-Nov-13 20:33N 51°32' E 002°19'1312.1
2014-Nov-13 19:27N 51°20' E 002°09'1111.9
2014-Nov-13 18:34N 51°12' E 001°59'1412.9
2014-Nov-13 17:28N 51°03' E 001°41'1314.1
2014-Nov-13 16:33N 50°53' E 001°28'  
Track history (hours):
 
Tides and Currents Weather Stations Pressure Air Temp Water Temp Dewpoint Dewpoint Depression Visibility Wind Speed Wind Dir Waves Ship Positions

Samus Swan

Last reported at 2014-Nov-20 13:33 UTC. Time now 2014-Nov-24 12:34 UTC.
Position N 50°31' W 000°02'.

Length 106 m; draft 5.7 m.

Type: Ship (hazmat cat B). MMSI: 248363000.

Date/timePositionNaut miles runAvg speedWind from/ knotsBaromVisibWave heightAir tempDewpointWater temp
2014-Nov-20 13:33N 50°31' W 000°02'1413.6
2014-Nov-20 12:33N 50°34' E 000°19'1313.0
2014-Nov-20 11:33N 50°37' E 000°39'1212.4
2014-Nov-20 10:33N 50°44' E 000°55'1312.5
2014-Nov-20 09:31N 50°51' E 001°12'1111.1
2014-Nov-20 08:33N 50°59' E 001°24'1312.7
2014-Nov-20 07:33N 51°08' E 001°38'1413.8
2014-Nov-20 06:34N 51°20' E 001°50'1414.0
2014-Nov-20 05:34N 51°32' E 002°01'18711.0
2014-Nov-19 12:33N 54°04' E 004°59'1313.3
2014-Nov-19 11:33N 54°06' E 005°21'1313.2
2014-Nov-19 10:32N 54°08' E 005°44'4912.4
2014-Nov-19 06:33N 54°12' E 007°08'1111.4
2014-Nov-19 05:33N 54°12' E 007°28'1111.1
2014-Nov-19 04:33N 54°08' E 007°45'8 8.2
2014-Nov-19 03:33N 54°05' E 007°58'1 1.4
2014-Nov-19 02:33N 54°06' E 007°59'6 6.2
2014-Nov-19 01:33N 54°01' E 008°07'1312.8
2014-Nov-19 00:33N 53°59' E 008°28'1414.3
2014-Nov-18 23:34N 53°51' E 008°48'1312.7
2014-Nov-18 22:33N 53°53' E 009°09'2110.4
2014-Nov-18 20:34N 53°38' E 009°33'1111.2
2014-Nov-18 19:34N 53°33' E 009°50'6 5.4
2014-Nov-18 18:32N 53°32' E 009°59'0 0.0
2014-Nov-18 17:32N 53°32' E 009°59'0 0.0
2014-Nov-18 16:32N 53°32' E 009°59'0 0.0
2014-Nov-18 15:29N 53°32' E 009°59'0 0.0
2014-Nov-18 14:32N 53°32' E 009°59'2 2.1
2014-Nov-18 13:34N 53°32' E 009°56'2 1.5
2014-Nov-18 12:29N 53°32' E 009°53'0 0.0
2014-Nov-17 21:23N 53°32' E 009°53'4 4.8
2014-Nov-17 20:33N 53°34' E 009°46'1313.4
2014-Nov-17 19:33N 53°42' E 009°29'1515.0
2014-Nov-17 18:33N 53°53' E 009°11'1313.2
2014-Nov-17 17:34N 53°50' E 008°49'1414.2
2014-Nov-17 16:33N 53°58' E 008°30'1313.3
2014-Nov-17 15:33N 53°60' E 008°07'9 8.8
2014-Nov-17 14:34N 54°03' E 007°53'1111.3
2014-Nov-17 13:34N 54°08' E 007°36'1211.9
2014-Nov-17 12:33N 54°09' E 007°16'4011.6
2014-Nov-17 09:08N 54°08' E 006°08'711.5
2014-Nov-17 08:33N 54°07' E 005°57'1211.5
2014-Nov-17 07:33N 54°05' E 005°37'1211.6
2014-Nov-17 06:33N 54°03' E 005°18'1211.8
2014-Nov-17 05:34N 54°02' E 004°58'100 9.6
2014-Nov-16 19:09N 52°31' E 003°47'812.0
2014-Nov-16 18:32N 52°31' E 003°59'1212.2
2014-Nov-16 17:34N 52°30' E 004°19'1010.4
2014-Nov-16 16:34N 52°28' E 004°35'3 2.5
2014-Nov-16 15:33N 52°28' E 004°40'4 3.8
2014-Nov-16 14:26N 52°25' E 004°45'0 0.0
2014-Nov-16 13:32N 52°25' E 004°45'0 0.0
2014-Nov-16 12:32N 52°25' E 004°45'0 0.0
2014-Nov-16 11:32N 52°25' E 004°45'0 0.0
2014-Nov-16 10:32N 52°25' E 004°45'0 0.0
2014-Nov-16 09:32N 52°25' E 004°45'0 0.0
2014-Nov-16 08:32N 52°25' E 004°45'0 0.0
2014-Nov-16 07:32N 52°25' E 004°45'0 0.0
2014-Nov-16 06:32N 52°25' E 004°45'0 0.0
2014-Nov-16 05:32N 52°25' E 004°45'0 0.0
2014-Nov-16 04:23N 52°25' E 004°45'0 0.0
2014-Nov-16 03:32N 52°25' E 004°45'0 0.0
2014-Nov-16 02:32N 52°25' E 004°45'0 0.0
2014-Nov-16 01:32N 52°25' E 004°45'0 0.0
2014-Nov-16 00:32N 52°25' E 004°45'0 0.0
2014-Nov-15 23:32N 52°25' E 004°45'0 0.0
2014-Nov-15 22:32N 52°25' E 004°45'0 0.0
2014-Nov-15 21:32N 52°25' E 004°45'0 0.0
2014-Nov-15 20:32N 52°25' E 004°45'0 0.0
2014-Nov-15 19:32N 52°25' E 004°45'0 0.0
2014-Nov-15 18:32N 52°25' E 004°45'0 0.0
2014-Nov-15 17:32N 52°25' E 004°45'0 0.0
2014-Nov-15 16:32N 52°25' E 004°45'0 0.0
2014-Nov-15 15:32N 52°25' E 004°45'0 0.0
2014-Nov-15 14:32N 52°25' E 004°45'0 0.0
2014-Nov-15 13:32N 52°25' E 004°45'0 0.0
2014-Nov-15 12:33N 52°25' E 004°45'4 4.5
2014-Nov-15 11:33N 52°28' E 004°39'4 3.9
2014-Nov-15 10:34N 52°28' E 004°33'1111.2
2014-Nov-15 09:34N 52°29' E 004°14'7 6.6
2014-Nov-15 08:32N 52°27' E 004°04'0 0.0
2014-Nov-15 07:32N 52°27' E 004°04'0 0.0
2014-Nov-15 06:32N 52°27' E 004°04'0 0.0
2014-Nov-15 05:32N 52°27' E 004°04'0 0.1
2014-Nov-15 04:32N 52°27' E 004°03'0 0.0
2014-Nov-15 03:32N 52°27' E 004°04'0 0.0
2014-Nov-15 02:32N 52°27' E 004°04'0 0.0
2014-Nov-15 01:32N 52°27' E 004°04'0 0.1
2014-Nov-15 00:32N 52°27' E 004°04'0 0.0
2014-Nov-14 23:32N 52°27' E 004°04'0 0.0
2014-Nov-14 22:32N 52°27' E 004°04'0 0.0
2014-Nov-14 21:32N 52°27' E 004°04'0 0.0
2014-Nov-14 20:32N 52°27' E 004°04'0 0.0
2014-Nov-14 19:32N 52°27' E 004°04'0 0.0
2014-Nov-14 18:28N 52°27' E 004°04'0 0.0
2014-Nov-14 17:32N 52°27' E 004°04'0 0.0
2014-Nov-14 16:29N 52°27' E 004°04'0 0.0
2014-Nov-14 15:31N 52°27' E 004°04'0 0.1
2014-Nov-14 14:32N 52°27' E 004°03'0 0.0
2014-Nov-14 12:31N 52°27' E 004°03'0 0.0
2014-Nov-14 11:31N 52°27' E 004°03'0 0.0
2014-Nov-14 10:31N 52°27' E 004°03'0 0.0
2014-Nov-14 09:31N 52°27' E 004°03'0 0.0
2014-Nov-14 08:31N 52°27' E 004°03'0 0.0
2014-Nov-14 07:31N 52°27' E 004°04'0 0.0
2014-Nov-14 06:31N 52°27' E 004°04'0 0.0
2014-Nov-14 05:31N 52°27' E 004°03'2 1.9
2014-Nov-14 04:33N 52°28' E 004°00'1111.2
2014-Nov-14 03:33N 52°25' E 003°42'6310.4
2014-Nov-13 21:33N 51°41' E 002°30'1111.4
2014-Nov-13 20:33N 51°32' E 002°19'1312.1
2014-Nov-13 19:27N 51°20' E 002°09'1111.9
2014-Nov-13 18:34N 51°12' E 001°59'1412.9
2014-Nov-13 17:28N 51°03' E 001°41'1314.1
2014-Nov-13 16:33N 50°53' E 001°28'  

Dump ship's entire track history